Time;durP1;ratioP1;P1;durP2;ratioP2;P2;SDS_P1;SDS_P2;PMS_P1;PMS_P2;Temp;Humidity;BMP_temperature;BMP_pressure;BME280_temperature;BME280_humidity;BME280_pressure;Samples;Min_cycle;Max_cycle;Signal;HPM_P1;HPM_P2
2022/11/17 00:01:59;;;;;;;27.67;13.30;;;;;;;;;;5074655;28;20047;-79
2022/11/17 00:04:28;;;;;;;21.38;8.63;;;;;;;;;;5108031;28;20041;-79
2022/11/17 00:06:54;;;;;;;28.92;15.27;;;;;;;;;;5061795;28;20041;-80
2022/11/17 00:09:20;;;;;;;24.35;12.50;;;;;;;;;;5045084;28;20049;-79
2022/11/17 00:14:33;;;;;;;27.07;14.73;;;;;;;;;;5069029;28;20127;-82
2022/11/17 00:17:07;;;;;;;30.73;15.63;;;;;;;;;;5074119;28;20037;-80
2022/11/17 00:22:18;;;;;;;26.98;15.05;;;;;;;;;;5041182;28;20114;-80
2022/11/17 00:24:44;;;;;;;30.75;14.27;;;;;;;;;;5053078;28;20552;-77
2022/11/17 00:27:11;;;;;;;28.73;15.48;;;;;;;;;;5073245;28;20044;-78
2022/11/17 00:29:37;;;;;;;23.08;13.25;;;;;;;;;;5057643;28;20045;-80
2022/11/17 00:34:48;;;;;;;30.70;13.70;;;;;;;;;;5050567;28;20041;-81
2022/11/17 00:37:15;;;;;;;26.52;14.45;;;;;;;;;;5072578;28;20037;-79
2022/11/17 00:39:41;;;;;;;33.45;16.05;;;;;;;;;;5072928;28;20048;-83
2022/11/17 00:42:07;;;;;;;25.83;12.23;;;;;;;;;;5043676;28;20583;-83
2022/11/17 00:44:33;;;;;;;28.40;14.98;;;;;;;;;;5053266;28;20493;-78
2022/11/17 00:46:59;;;;;;;25.75;13.25;;;;;;;;;;5036056;28;20486;-78
2022/11/17 00:49:25;;;;;;;26.10;14.50;;;;;;;;;;5022719;28;20551;-78
2022/11/17 00:51:52;;;;;;;26.50;13.85;;;;;;;;;;5072851;28;20048;-77
2022/11/17 00:54:18;;;;;;;24.05;13.18;;;;;;;;;;5055700;28;20051;-80
2022/11/17 00:56:44;;;;;;;26.10;14.18;;;;;;;;;;5072523;28;20036;-79
2022/11/17 00:59:10;;;;;;;20.42;9.48;;;;;;;;;;5072351;28;20047;-83
2022/11/17 01:01:36;;;;;;;22.60;11.38;;;;;;;;;;5054851;28;20032;-81
2022/11/17 01:04:03;;;;;;;23.48;12.85;;;;;;;;;;5047067;28;20102;-80
2022/11/17 01:06:30;;;;;;;25.13;13.80;;;;;;;;;;5069246;28;20040;-80
2022/11/17 01:09:05;;;;;;;20.05;10.85;;;;;;;;;;5061918;28;20047;-76
2022/11/17 01:11:31;;;;;;;23.30;13.25;;;;;;;;;;5071102;28;20052;-80
2022/11/17 01:13:58;;;;;;;24.50;12.27;;;;;;;;;;5061367;28;20489;-79
2022/11/17 01:16:25;;;;;;;17.63;9.48;;;;;;;;;;5073413;28;20382;-82
2022/11/17 01:18:52;;;;;;;21.10;11.95;;;;;;;;;;5072098;28;20044;-76
2022/11/17 01:21:23;;;;;;;18.60;10.85;;;;;;;;;;5038883;28;20060;-77
2022/11/17 01:23:50;;;;;;;17.08;10.93;;;;;;;;;;5045227;28;20040;-81
2022/11/17 01:26:17;;;;;;;23.27;11.07;;;;;;;;;;5063768;28;20041;-78
2022/11/17 01:28:43;;;;;;;23.63;12.57;;;;;;;;;;5042447;28;20051;-78
2022/11/17 01:31:11;;;;;;;21.75;11.95;;;;;;;;;;5072150;28;20040;-80
2022/11/17 01:33:37;;;;;;;23.70;14.48;;;;;;;;;;5071642;28;20078;-81
2022/11/17 01:36:04;;;;;;;22.23;12.55;;;;;;;;;;5072468;28;20036;-80
2022/11/17 01:38:31;;;;;;;17.98;10.73;;;;;;;;;;5071816;28;20036;-81
2022/11/17 01:40:57;;;;;;;17.25;9.30;;;;;;;;;;5057759;28;20498;-80
2022/11/17 01:43:41;;;;;;;24.35;12.10;;;;;;;;;;5055178;28;20908;-81
2022/11/17 01:46:12;;;;;;;20.52;11.25;;;;;;;;;;5072885;28;20044;-78
2022/11/17 01:48:38;;;;;;;27.08;13.32;;;;;;;;;;5072056;28;20044;-78
2022/11/17 01:51:04;;;;;;;29.70;15.38;;;;;;;;;;5069129;28;20423;-81
2022/11/17 01:53:33;;;;;;;20.63;11.32;;;;;;;;;;5044279;28;20044;-78
2022/11/17 01:56:01;;;;;;;22.55;11.40;;;;;;;;;;5055333;28;20492;-84
2022/11/17 01:58:33;;;;;;;14.32;7.25;;;;;;;;;;5064727;28;20045;-83
2022/11/17 02:00:59;;;;;;;20.63;11.73;;;;;;;;;;5066434;28;20122;-79
2022/11/17 02:03:26;;;;;;;28.00;15.63;;;;;;;;;;5035114;28;20036;-79
2022/11/17 02:05:52;;;;;;;19.08;9.48;;;;;;;;;;5052111;28;20045;-77
2022/11/17 02:08:20;;;;;;;28.55;15.38;;;;;;;;;;5056686;28;20047;-82
2022/11/17 02:10:46;;;;;;;23.75;10.80;;;;;;;;;;5071750;28;20083;-81
2022/11/17 02:13:13;;;;;;;26.05;13.82;;;;;;;;;;5072819;28;20044;-79
2022/11/17 02:15:39;;;;;;;18.25;10.02;;;;;;;;;;5054800;28;20064;-82
2022/11/17 02:18:05;;;;;;;29.33;16.27;;;;;;;;;;5057042;28;20095;-80
2022/11/17 02:20:37;;;;;;;29.17;17.05;;;;;;;;;;5054293;28;20064;-78
2022/11/17 02:23:13;;;;;;;30.55;14.00;;;;;;;;;;5071553;28;20485;-78
2022/11/17 02:25:48;;;;;;;22.70;13.23;;;;;;;;;;5025831;28;20501;-80
2022/11/17 02:28:17;;;;;;;15.83;9.10;;;;;;;;;;5060512;28;20124;-82
2022/11/17 02:30:43;;;;;;;19.65;10.57;;;;;;;;;;5055065;28;20314;-78
2022/11/17 02:33:17;;;;;;;21.77;11.85;;;;;;;;;;5071749;28;20044;-81
2022/11/17 02:35:54;;;;;;;27.17;15.40;;;;;;;;;;5071534;28;20067;-80
2022/11/17 02:38:23;;;;;;;27.90;16.20;;;;;;;;;;5071635;28;20474;-81
2022/11/17 02:40:53;;;;;;;24.27;13.88;;;;;;;;;;5071172;28;20048;-81
2022/11/17 02:46:06;;;;;;;32.03;15.57;;;;;;;;;;5056863;28;20040;-79
2022/11/17 02:48:37;;;;;;;23.95;12.98;;;;;;;;;;5071764;28;20032;-80
2022/11/17 02:51:03;;;;;;;29.70;15.40;;;;;;;;;;5072914;28;20052;-79
2022/11/17 02:53:30;;;;;;;28.33;15.20;;;;;;;;;;5052692;28;20045;-79
2022/11/17 02:55:58;;;;;;;31.42;15.85;;;;;;;;;;5054974;28;20052;-82
2022/11/17 02:58:24;;;;;;;27.95;13.93;;;;;;;;;;5069053;28;20041;-79
2022/11/17 03:01:00;;;;;;;19.85;11.52;;;;;;;;;;5036743;28;20102;-79
2022/11/17 03:03:41;;;;;;;22.40;11.30;;;;;;;;;;5065222;28;20482;-79
2022/11/17 03:06:19;;;;;;;33.08;18.80;;;;;;;;;;5085510;28;20448;-81
2022/11/17 03:09:11;;;;;;;21.95;10.38;;;;;;;;;;5055939;28;20032;-82
2022/11/17 03:11:57;;;;;;;28.88;14.48;;;;;;;;;;5040646;28;20467;-81
2022/11/17 03:14:28;;;;;;;26.17;13.85;;;;;;;;;;5054699;28;20052;-82
2022/11/17 03:17:03;;;;;;;23.40;9.88;;;;;;;;;;5054525;28;20048;-79
2022/11/17 03:19:37;;;;;;;25.77;13.70;;;;;;;;;;5054619;28;20064;-81
2022/11/17 03:22:04;;;;;;;22.17;12.18;;;;;;;;;;5054493;28;20084;-79
2022/11/17 03:24:32;;;;;;;19.42;10.25;;;;;;;;;;5042191;28;20047;-84
2022/11/17 03:27:04;;;;;;;30.20;16.88;;;;;;;;;;5074395;28;20045;-84
2022/11/17 03:29:31;;;;;;;26.98;14.07;;;;;;;;;;5043027;28;20041;-82
2022/11/17 03:32:00;;;;;;;26.70;14.90;;;;;;;;;;5054926;28;20063;-79
2022/11/17 03:34:27;;;;;;;33.35;17.20;;;;;;;;;;5054484;28;20041;-80
2022/11/17 03:36:57;;;;;;;29.67;16.10;;;;;;;;;;5055378;28;20033;-81
2022/11/17 03:39:27;;;;;;;30.25;16.55;;;;;;;;;;5054412;28;20049;-81
2022/11/17 03:41:57;;;;;;;20.58;10.75;;;;;;;;;;5037267;28;20098;-79
2022/11/17 03:44:24;;;;;;;29.63;15.48;;;;;;;;;;5055160;28;20044;-80
2022/11/17 03:46:51;;;;;;;28.20;14.50;;;;;;;;;;5053767;28;20167;-78
2022/11/17 03:49:23;;;;;;;26.17;12.98;;;;;;;;;;5055606;28;20029;-80
2022/11/17 03:51:50;;;;;;;17.05;9.13;;;;;;;;;;5054339;28;20406;-78
2022/11/17 03:54:16;;;;;;;25.88;13.20;;;;;;;;;;5037441;28;20037;-80
2022/11/17 03:56:45;;;;;;;23.77;13.13;;;;;;;;;;5037469;28;20516;-76
2022/11/17 03:59:22;;;;;;;26.83;13.18;;;;;;;;;;5087399;28;20073;-78
2022/11/17 04:01:48;;;;;;;18.88;9.88;;;;;;;;;;5053965;28;20493;-80
2022/11/17 04:04:15;;;;;;;24.00;11.32;;;;;;;;;;5054307;28;20439;-79
2022/11/17 04:06:41;;;;;;;18.77;10.45;;;;;;;;;;5053434;28;20049;-80
2022/11/17 04:09:07;;;;;;;24.08;13.18;;;;;;;;;;5037348;28;20091;-83
2022/11/17 04:17:03;;;;;;;19.33;10.90;;;;;;;;;;5053684;28;20052;-81
2022/11/17 04:19:29;;;;;;;28.60;15.40;;;;;;;;;;5039355;28;20053;-84
2022/11/17 04:21:55;;;;;;;24.05;11.82;;;;;;;;;;5053356;28;20102;-83
2022/11/17 04:24:21;;;;;;;15.35;8.35;;;;;;;;;;5039245;28;20089;-81
2022/11/17 04:29:33;;;;;;;24.35;13.50;;;;;;;;;;5053145;28;20056;-82
2022/11/17 04:31:59;;;;;;;23.50;11.95;;;;;;;;;;5053221;28;20041;-80
2022/11/17 04:34:25;;;;;;;23.92;12.15;;;;;;;;;;5036591;28;20052;-84
2022/11/17 04:36:51;;;;;;;17.08;9.65;;;;;;;;;;5053290;28;20071;-82
2022/11/17 04:39:18;;;;;;;24.13;13.30;;;;;;;;;;5036677;28;20047;-81
2022/11/17 04:41:53;;;;;;;14.70;8.18;;;;;;;;;;5058844;28;20049;-81
2022/11/17 04:44:19;;;;;;;18.48;9.32;;;;;;;;;;5060418;28;20051;-85
2022/11/17 04:46:45;;;;;;;22.40;11.57;;;;;;;;;;5052618;28;20037;-82
2022/11/17 04:49:12;;;;;;;20.25;11.65;;;;;;;;;;5036828;28;20129;-81
2022/11/17 04:51:38;;;;;;;23.15;12.23;;;;;;;;;;5054549;28;20072;-83
2022/11/17 04:54:06;;;;;;;20.33;11.07;;;;;;;;;;5052883;28;20128;-83
2022/11/17 04:56:32;;;;;;;19.77;11.65;;;;;;;;;;5054155;28;20049;-82
2022/11/17 04:58:58;;;;;;;18.55;10.23;;;;;;;;;;5065083;28;20080;-81
2022/11/17 05:01:26;;;;;;;17.13;9.80;;;;;;;;;;5051267;28;20041;-77
2022/11/17 05:03:59;;;;;;;25.83;14.45;;;;;;;;;;5049140;28;20052;-81
2022/11/17 05:06:33;;;;;;;21.83;12.95;;;;;;;;;;5052166;28;20041;-84
2022/11/17 05:09:00;;;;;;;20.27;11.38;;;;;;;;;;5067164;28;20053;-81
2022/11/17 05:14:12;;;;;;;17.20;10.20;;;;;;;;;;5038901;28;20045;-80
2022/11/17 05:19:24;;;;;;;24.77;14.57;;;;;;;;;;5052728;28;20519;-82
2022/11/17 05:21:50;;;;;;;21.83;12.98;;;;;;;;;;5053404;28;20089;-83
2022/11/17 05:24:17;;;;;;;16.90;9.18;;;;;;;;;;5052614;28;20091;-84
2022/11/17 05:26:44;;;;;;;20.90;12.18;;;;;;;;;;5053526;28;20110;-81
2022/11/17 05:29:11;;;;;;;20.35;11.63;;;;;;;;;;5052915;28;20084;-83
2022/11/17 05:31:37;;;;;;;18.55;10.77;;;;;;;;;;5065687;28;20128;-84
2022/11/17 05:34:05;;;;;;;14.40;8.13;;;;;;;;;;5039624;28;20049;-83
2022/11/17 05:36:31;;;;;;;21.63;13.43;;;;;;;;;;5051153;28;20080;-81
2022/11/17 05:38:57;;;;;;;12.57;7.93;;;;;;;;;;5052602;28;20041;-79
2022/11/17 05:41:23;;;;;;;17.30;9.95;;;;;;;;;;5052161;28;20052;-81
2022/11/17 05:43:50;;;;;;;19.73;12.85;;;;;;;;;;5052090;28;20051;-79
2022/11/17 05:46:17;;;;;;;20.55;12.48;;;;;;;;;;5053855;28;20393;-80
2022/11/17 05:48:43;;;;;;;17.38;10.60;;;;;;;;;;5053113;28;20045;-83
2022/11/17 05:51:10;;;;;;;19.25;11.98;;;;;;;;;;5052081;28;20049;-83
2022/11/17 05:53:36;;;;;;;13.25;8.98;;;;;;;;;;5035186;28;20506;-80
2022/11/17 05:56:22;;;;;;;17.05;8.88;;;;;;;;;;5035583;28;20136;-83
2022/11/17 05:58:51;;;;;;;15.68;10.52;;;;;;;;;;5031439;28;20107;-82
2022/11/17 06:01:19;;;;;;;13.45;8.38;;;;;;;;;;5051709;28;20048;-85
2022/11/17 06:03:46;;;;;;;15.88;8.73;;;;;;;;;;5034906;28;20068;-82
2022/11/17 06:06:13;;;;;;;13.82;9.75;;;;;;;;;;5034967;28;20033;-80
2022/11/17 06:08:39;;;;;;;12.43;7.35;;;;;;;;;;5034903;28;20067;-80
2022/11/17 06:11:05;;;;;;;14.57;9.02;;;;;;;;;;5051772;28;20389;-78
2022/11/17 06:13:31;;;;;;;14.50;8.75;;;;;;;;;;5051640;28;20052;-82
2022/11/17 06:15:59;;;;;;;14.98;7.80;;;;;;;;;;5050977;28;20049;-79
2022/11/17 06:18:45;;;;;;;9.93;6.55;;;;;;;;;;5051318;28;20094;-79
2022/11/17 06:21:14;;;;;;;13.02;8.73;;;;;;;;;;5051545;28;20099;-80
2022/11/17 06:23:40;;;;;;;11.70;8.10;;;;;;;;;;5051146;28;20041;-81
2022/11/17 06:26:07;;;;;;;9.02;5.72;;;;;;;;;;5051887;28;20060;-79
2022/11/17 06:28:34;;;;;;;12.27;8.60;;;;;;;;;;5051189;28;20045;-82
2022/11/17 06:31:01;;;;;;;15.82;10.20;;;;;;;;;;5051544;28;20063;-82
2022/11/17 06:33:28;;;;;;;13.57;7.95;;;;;;;;;;5051342;28;20047;-82
2022/11/17 06:35:55;;;;;;;14.90;9.30;;;;;;;;;;5034608;28;20040;-84
2022/11/17 06:38:21;;;;;;;11.60;7.95;;;;;;;;;;5051630;28;20486;-83
2022/11/17 06:40:47;;;;;;;13.27;7.28;;;;;;;;;;5051137;28;20099;-82
2022/11/17 06:43:13;;;;;;;13.30;8.13;;;;;;;;;;5051516;28;20041;-84
2022/11/17 06:45:40;;;;;;;16.83;10.23;;;;;;;;;;5051252;28;20045;-82
2022/11/17 06:48:07;;;;;;;10.05;6.32;;;;;;;;;;5035023;28;20399;-81
2022/11/17 06:50:33;;;;;;;13.90;8.20;;;;;;;;;;5034719;28;20056;-84
2022/11/17 06:53:00;;;;;;;10.95;6.95;;;;;;;;;;5065224;28;20443;-85
2022/11/17 06:55:27;;;;;;;10.52;6.85;;;;;;;;;;5051172;28;20091;-83
2022/11/17 06:57:59;;;;;;;9.30;6.13;;;;;;;;;;5050581;28;20037;-83
2022/11/17 07:00:25;;;;;;;11.43;7.45;;;;;;;;;;5046919;28;20116;-82
2022/11/17 07:02:51;;;;;;;15.82;8.73;;;;;;;;;;5034460;28;20041;-83
2022/11/17 07:05:17;;;;;;;16.23;10.20;;;;;;;;;;5051170;28;20080;-84
2022/11/17 07:07:43;;;;;;;10.85;7.38;;;;;;;;;;5050732;28;20044;-83
2022/11/17 07:10:09;;;;;;;14.02;8.27;;;;;;;;;;5050811;28;20041;-83
2022/11/17 07:12:35;;;;;;;13.02;7.82;;;;;;;;;;5047257;28;20041;-84
2022/11/17 07:15:01;;;;;;;12.55;7.55;;;;;;;;;;5040456;28;20084;-82
2022/11/17 07:17:28;;;;;;;15.93;8.95;;;;;;;;;;5051044;28;20041;-83
2022/11/17 07:19:54;;;;;;;12.25;7.88;;;;;;;;;;5050239;28;20494;-83
2022/11/17 07:22:20;;;;;;;14.27;8.45;;;;;;;;;;5050734;28;20049;-83
2022/11/17 07:24:46;;;;;;;12.25;7.30;;;;;;;;;;5051056;28;20041;-84
2022/11/17 07:27:12;;;;;;;12.82;8.00;;;;;;;;;;5050718;28;20055;-85
2022/11/17 07:29:39;;;;;;;13.77;8.35;;;;;;;;;;5051521;28;20079;-80
2022/11/17 07:32:05;;;;;;;12.98;8.50;;;;;;;;;;5044852;28;20073;-84
2022/11/17 07:34:31;;;;;;;17.25;11.32;;;;;;;;;;5054989;28;20056;-81
2022/11/17 07:36:58;;;;;;;12.15;7.03;;;;;;;;;;5038277;28;20489;-86
2022/11/17 07:39:24;;;;;;;14.60;9.18;;;;;;;;;;5054431;28;20041;-82
2022/11/17 07:41:50;;;;;;;16.83;10.75;;;;;;;;;;5054107;28;20040;-84
2022/11/17 07:44:16;;;;;;;10.50;7.25;;;;;;;;;;5054485;28;20049;-85
2022/11/17 07:46:42;;;;;;;15.55;9.98;;;;;;;;;;5038061;28;20045;-86
2022/11/17 07:49:08;;;;;;;12.75;7.80;;;;;;;;;;5055550;28;20037;-80
2022/11/17 07:51:34;;;;;;;16.63;10.90;;;;;;;;;;5054319;28;20128;-84
2022/11/17 07:54:00;;;;;;;13.77;8.65;;;;;;;;;;5054264;28;20041;-84
2022/11/17 07:56:26;;;;;;;18.10;11.15;;;;;;;;;;5058319;28;20060;-84
2022/11/17 07:58:53;;;;;;;10.25;6.55;;;;;;;;;;5059146;28;20076;-82
2022/11/17 08:01:19;;;;;;;16.35;10.57;;;;;;;;;;5063346;28;20032;-83
2022/11/17 08:03:45;;;;;;;14.25;9.00;;;;;;;;;;5059035;28;20550;-83
2022/11/17 08:06:11;;;;;;;13.13;7.65;;;;;;;;;;5057686;28;20064;-87
2022/11/17 08:08:38;;;;;;;16.48;10.15;;;;;;;;;;5056301;28;20041;-84
2022/11/17 08:11:08;;;;;;;17.58;10.70;;;;;;;;;;5054945;28;20037;-83
2022/11/17 08:13:35;;;;;;;17.95;11.32;;;;;;;;;;5044013;28;20037;-81
2022/11/17 08:16:02;;;;;;;14.38;9.05;;;;;;;;;;5052696;28;20102;-82
2022/11/17 08:18:29;;;;;;;16.92;10.38;;;;;;;;;;5040512;28;20053;-84
2022/11/17 08:21:02;;;;;;;16.45;10.48;;;;;;;;;;5053711;28;20146;-80
2022/11/17 08:23:28;;;;;;;8.48;4.95;;;;;;;;;;5053747;28;20048;-82
2022/11/17 08:25:54;;;;;;;15.77;10.07;;;;;;;;;;5036910;28;20091;-79
2022/11/17 08:28:21;;;;;;;13.10;8.50;;;;;;;;;;5037180;28;20478;-85
2022/11/17 08:30:47;;;;;;;14.13;8.23;;;;;;;;;;5037312;28;20553;-82
2022/11/17 08:33:13;;;;;;;12.63;8.68;;;;;;;;;;5039855;28;20516;-87
2022/11/17 08:35:39;;;;;;;16.58;9.98;;;;;;;;;;5053600;28;20044;-82
2022/11/17 08:38:06;;;;;;;12.77;8.07;;;;;;;;;;5053357;28;20040;-82
2022/11/17 08:40:32;;;;;;;13.50;8.65;;;;;;;;;;5054557;28;20048;-82
2022/11/17 08:42:58;;;;;;;10.52;6.20;;;;;;;;;;5055228;28;20041;-84
2022/11/17 08:45:25;;;;;;;13.88;9.15;;;;;;;;;;5065505;28;20481;-82
2022/11/17 08:47:51;;;;;;;7.53;4.78;;;;;;;;;;5035774;28;20071;-83
2022/11/17 08:50:19;;;;;;;7.47;4.30;;;;;;;;;;5037070;28;20429;-83
2022/11/17 08:52:45;;;;;;;15.98;9.80;;;;;;;;;;5053423;28;20045;-86
2022/11/17 08:55:11;;;;;;;12.18;7.40;;;;;;;;;;5053324;28;20405;-83
2022/11/17 08:57:37;;;;;;;14.02;9.40;;;;;;;;;;5052943;28;20099;-84
2022/11/17 09:00:04;;;;;;;15.18;9.43;;;;;;;;;;5052358;28;20087;-83
2022/11/17 09:02:30;;;;;;;16.83;11.05;;;;;;;;;;5066961;28;20087;-86
2022/11/17 09:04:56;;;;;;;14.82;9.82;;;;;;;;;;5036208;28;20040;-82
2022/11/17 09:07:22;;;;;;;15.38;9.40;;;;;;;;;;5050172;28;20483;-82
2022/11/17 09:09:48;;;;;;;14.18;9.85;;;;;;;;;;5042018;28;20033;-82
2022/11/17 09:12:14;;;;;;;16.85;10.15;;;;;;;;;;5052340;28;20044;-83
2022/11/17 09:14:40;;;;;;;16.73;10.73;;;;;;;;;;5052715;28;20048;-85
2022/11/17 09:17:07;;;;;;;16.85;10.30;;;;;;;;;;5052498;28;20130;-81
2022/11/17 09:19:33;;;;;;;17.23;10.77;;;;;;;;;;5052540;28;20519;-80
2022/11/17 09:21:59;;;;;;;17.83;10.80;;;;;;;;;;5052420;28;20479;-82
2022/11/17 09:24:26;;;;;;;15.15;9.73;;;;;;;;;;5052581;28;20088;-83
2022/11/17 09:26:56;;;;;;;15.55;8.77;;;;;;;;;;5053024;28;20076;-83
2022/11/17 09:29:22;;;;;;;16.80;9.32;;;;;;;;;;5033848;28;20126;-84
2022/11/17 09:31:48;;;;;;;19.10;11.40;;;;;;;;;;5024753;28;20465;-84
2022/11/17 09:34:15;;;;;;;16.40;10.30;;;;;;;;;;5052367;28;20546;-85
2022/11/17 09:36:41;;;;;;;19.38;11.55;;;;;;;;;;5038712;28;20049;-82
2022/11/17 09:39:07;;;;;;;11.13;6.18;;;;;;;;;;5051980;28;20059;-83
2022/11/17 09:41:33;;;;;;;16.95;10.85;;;;;;;;;;5051806;28;20037;-82
2022/11/17 09:44:07;;;;;;;15.50;8.80;;;;;;;;;;5052118;28;20386;-83
2022/11/17 09:46:45;;;;;;;13.48;8.18;;;;;;;;;;5052105;28;20037;-82
2022/11/17 09:49:14;;;;;;;17.85;10.32;;;;;;;;;;5035171;28;20054;-81
2022/11/17 09:51:42;;;;;;;15.13;8.80;;;;;;;;;;5051974;28;20047;-84
2022/11/17 09:54:11;;;;;;;17.23;10.27;;;;;;;;;;5051838;28;20051;-81
2022/11/17 09:56:38;;;;;;;14.75;8.95;;;;;;;;;;5051767;28;20044;-81
2022/11/17 09:59:10;;;;;;;15.73;9.93;;;;;;;;;;5035276;28;20045;-85
2022/11/17 10:01:37;;;;;;;12.30;7.28;;;;;;;;;;5035055;28;20052;-82
2022/11/17 10:04:08;;;;;;;16.40;9.45;;;;;;;;;;5051486;28;20040;-81
2022/11/17 10:06:36;;;;;;;18.65;10.07;;;;;;;;;;5051904;28;20073;-79
2022/11/17 10:09:21;;;;;;;16.67;9.25;;;;;;;;;;5051739;28;20045;-81
2022/11/17 10:11:47;;;;;;;15.77;9.60;;;;;;;;;;5051741;28;20037;-83
2022/11/17 10:14:18;;;;;;;13.48;7.68;;;;;;;;;;5051484;28;20040;-80
2022/11/17 10:16:54;;;;;;;14.45;8.75;;;;;;;;;;5051863;28;20045;-81
2022/11/17 10:19:22;;;;;;;10.63;5.90;;;;;;;;;;5050990;28;20040;-81
2022/11/17 10:22:04;;;;;;;12.48;8.38;;;;;;;;;;5051617;28;20583;-81
2022/11/17 10:24:42;;;;;;;16.42;9.88;;;;;;;;;;5051842;28;20037;-79
2022/11/17 10:27:17;;;;;;;14.85;8.02;;;;;;;;;;5051422;28;20053;-79
2022/11/17 10:29:55;;;;;;;13.27;8.35;;;;;;;;;;5051520;28;20516;-78
2022/11/17 10:32:21;;;;;;;16.95;9.50;;;;;;;;;;5034905;28;20049;-82
2022/11/17 10:34:48;;;;;;;17.48;10.25;;;;;;;;;;5018744;28;20072;-81
2022/11/17 10:37:16;;;;;;;14.15;8.88;;;;;;;;;;5034622;28;20049;-80
2022/11/17 10:39:42;;;;;;;16.27;9.60;;;;;;;;;;5034998;28;20041;-79
2022/11/17 10:42:24;;;;;;;16.17;10.02;;;;;;;;;;5034523;28;20406;-80
2022/11/17 10:44:51;;;;;;;20.25;10.80;;;;;;;;;;5051230;28;20037;-80
2022/11/17 10:47:30;;;;;;;17.85;10.23;;;;;;;;;;5024908;28;20048;-80
2022/11/17 10:50:05;;;;;;;17.88;10.57;;;;;;;;;;5048935;28;20494;-79
2022/11/17 10:52:32;;;;;;;18.00;10.10;;;;;;;;;;5051411;28;20463;-83
2022/11/17 10:55:18;;;;;;;16.40;9.75;;;;;;;;;;5048374;28;20049;-80
2022/11/17 10:57:46;;;;;;;16.25;9.10;;;;;;;;;;5042600;28;20045;-82
2022/11/17 11:00:26;;;;;;;15.18;8.05;;;;;;;;;;5050634;28;20059;-80
2022/11/17 11:03:07;;;;;;;18.90;7.70;;;;;;;;;;5019087;28;20044;-82
2022/11/17 11:05:33;;;;;;;14.07;7.30;;;;;;;;;;5047006;28;20037;-80
2022/11/17 11:08:18;;;;;;;11.10;6.43;;;;;;;;;;5051241;28;20040;-80
2022/11/17 11:10:46;;;;;;;10.82;5.90;;;;;;;;;;5053602;28;20509;-81
2022/11/17 11:13:16;;;;;;;12.45;5.85;;;;;;;;;;5055794;28;20573;-80
2022/11/17 11:15:42;;;;;;;13.60;7.60;;;;;;;;;;5055029;28;20579;-80
2022/11/17 11:18:12;;;;;;;7.88;5.00;;;;;;;;;;5054730;28;20069;-80
2022/11/17 11:20:58;;;;;;;6.55;3.42;;;;;;;;;;5054431;28;20052;-80
2022/11/17 11:23:43;;;;;;;5.35;3.58;;;;;;;;;;5054689;28;20512;-80
2022/11/17 11:26:30;;;;;;;6.10;3.00;;;;;;;;;;5055055;28;20397;-83
2022/11/17 11:29:11;;;;;;;5.10;2.85;;;;;;;;;;5054740;28;20040;-81
2022/11/17 11:31:44;;;;;;;5.82;2.83;;;;;;;;;;5025185;28;20091;-80
2022/11/17 11:34:19;;;;;;;8.00;2.83;;;;;;;;;;5054836;28;20048;-81
2022/11/17 11:37:08;;;;;;;7.43;2.78;;;;;;;;;;5041576;28;20047;-81
2022/11/17 11:39:40;;;;;;;8.27;2.60;;;;;;;;;;5055463;28;20120;-80
2022/11/17 11:42:25;;;;;;;4.82;2.60;;;;;;;;;;5054685;28;20036;-80
2022/11/17 11:45:06;;;;;;;5.47;2.35;;;;;;;;;;5055447;28;20041;-80
2022/11/17 11:47:38;;;;;;;5.53;2.60;;;;;;;;;;5055252;28;20045;-84
2022/11/17 11:50:17;;;;;;;4.30;1.90;;;;;;;;;;5054839;28;20037;-80
2022/11/17 11:52:45;;;;;;;6.30;2.00;;;;;;;;;;5055306;28;20124;-81
2022/11/17 11:55:20;;;;;;;4.28;2.00;;;;;;;;;;5050025;28;20067;-80
2022/11/17 11:57:53;;;;;;;4.57;1.98;;;;;;;;;;5079621;28;20080;-80
2022/11/17 12:00:20;;;;;;;7.97;2.20;;;;;;;;;;5053893;28;20032;-78
2022/11/17 12:03:01;;;;;;;7.03;2.20;;;;;;;;;;5054189;28;20457;-79
2022/11/17 12:05:40;;;;;;;4.03;1.55;;;;;;;;;;5039681;28;20092;-79
2022/11/17 12:08:11;;;;;;;4.18;1.45;;;;;;;;;;5055120;28;20033;-79
2022/11/17 12:10:45;;;;;;;6.13;1.90;;;;;;;;;;5053631;28;20099;-78
2022/11/17 12:13:12;;;;;;;4.78;1.58;;;;;;;;;;5053799;28;20072;-78
2022/11/17 12:15:38;;;;;;;4.25;1.70;;;;;;;;;;5053520;28;20532;-79
2022/11/17 12:18:05;;;;;;;6.13;1.70;;;;;;;;;;5054915;28;20072;-79
2022/11/17 12:20:31;;;;;;;8.85;2.08;;;;;;;;;;5053101;28;20095;-79
2022/11/17 12:23:06;;;;;;;6.25;1.65;;;;;;;;;;5053436;28;20123;-78
2022/11/17 12:25:34;;;;;;;5.68;2.53;;;;;;;;;;5053317;28;20041;-80
2022/11/17 12:28:17;;;;;;;4.82;1.50;;;;;;;;;;5053436;28;20112;-80
2022/11/17 12:30:43;;;;;;;7.15;2.00;;;;;;;;;;5053407;28;20502;-80
2022/11/17 12:33:09;;;;;;;6.68;2.03;;;;;;;;;;5052987;28;20162;-79
2022/11/17 12:35:37;;;;;;;5.85;2.08;;;;;;;;;;5020124;28;20084;-81
2022/11/17 12:38:16;;;;;;;5.28;1.75;;;;;;;;;;5053506;28;20524;-80
2022/11/17 12:40:49;;;;;;;4.93;1.85;;;;;;;;;;5036530;28;20049;-81
2022/11/17 12:43:15;;;;;;;5.38;1.90;;;;;;;;;;5054462;28;20490;-81
2022/11/17 12:45:54;;;;;;;7.03;2.25;;;;;;;;;;5053175;28;20123;-81
2022/11/17 12:48:20;;;;;;;5.55;2.13;;;;;;;;;;5036989;28;20029;-80
2022/11/17 12:50:52;;;;;;;6.63;2.03;;;;;;;;;;5036727;28;20041;-81
2022/11/17 12:53:21;;;;;;;6.18;2.25;;;;;;;;;;5053359;28;20119;-81
2022/11/17 12:56:06;;;;;;;9.48;2.60;;;;;;;;;;5053233;28;20044;-79
2022/11/17 12:58:41;;;;;;;8.48;2.28;;;;;;;;;;5052975;28;20049;-81
2022/11/17 13:01:07;;;;;;;4.90;2.03;;;;;;;;;;5036406;28;20037;-81
2022/11/17 13:03:34;;;;;;;4.75;2.33;;;;;;;;;;5053536;28;20044;-81
2022/11/17 13:06:07;;;;;;;5.97;2.17;;;;;;;;;;5036583;28;20371;-80
2022/11/17 13:08:33;;;;;;;11.15;2.47;;;;;;;;;;5067240;28;20076;-81
2022/11/17 13:11:04;;;;;;;7.57;1.80;;;;;;;;;;5054334;28;20428;-81
2022/11/17 13:13:30;;;;;;;7.63;2.40;;;;;;;;;;5052814;28;20045;-82
2022/11/17 13:15:58;;;;;;;5.07;2.50;;;;;;;;;;5054419;28;20047;-82
2022/11/17 13:18:32;;;;;;;6.80;2.80;;;;;;;;;;5053169;28;20432;-82
2022/11/17 13:20:59;;;;;;;7.10;2.22;;;;;;;;;;5052546;28;20144;-82
2022/11/17 13:23:26;;;;;;;6.18;2.25;;;;;;;;;;5052779;28;20094;-82
2022/11/17 13:26:15;;;;;;;6.68;2.30;;;;;;;;;;5052744;28;20063;-81
2022/11/17 13:28:42;;;;;;;6.18;2.47;;;;;;;;;;5031364;28;20080;-82
2022/11/17 13:31:13;;;;;;;6.22;2.67;;;;;;;;;;5053743;28;20045;-82
2022/11/17 13:33:39;;;;;;;7.82;2.78;;;;;;;;;;5035338;28;20090;-82
2022/11/17 13:36:07;;;;;;;5.95;2.58;;;;;;;;;;5052410;28;20048;-81
2022/11/17 13:38:34;;;;;;;4.75;2.30;;;;;;;;;;5052448;28;20040;-82
2022/11/17 13:41:00;;;;;;;8.98;3.22;;;;;;;;;;5052173;28;20045;-79
2022/11/17 13:43:28;;;;;;;7.75;2.58;;;;;;;;;;5051884;28;20037;-79
2022/11/17 13:45:54;;;;;;;8.35;3.05;;;;;;;;;;5052528;28;20485;-79
2022/11/17 13:48:30;;;;;;;8.15;3.08;;;;;;;;;;5051815;28;20115;-80
2022/11/17 13:50:56;;;;;;;;;;;;;;;;;;5035801;28;20045;-81
2022/11/17 13:53:26;;;;;;;7.93;2.40;;;;;;;;;;5055230;28;19940;-78
2022/11/17 13:55:52;;;;;;;5.80;2.83;;;;;;;;;;5056960;28;20131;-78
2022/11/17 13:58:31;;;;;;;9.20;2.30;;;;;;;;;;5040923;28;20038;-80
2022/11/17 14:00:58;;;;;;;9.32;3.17;;;;;;;;;;5056066;28;20041;-77
2022/11/17 14:03:35;;;;;;;8.35;2.33;;;;;;;;;;5052984;28;20045;-78
2022/11/17 14:06:02;;;;;;;7.30;2.80;;;;;;;;;;5058220;28;20037;-81
2022/11/17 14:08:31;;;;;;;8.75;2.65;;;;;;;;;;5052051;28;20116;-79
2022/11/17 14:11:20;;;;;;;5.47;2.17;;;;;;;;;;5056703;28;20122;-81
2022/11/17 14:13:50;;;;;;;7.03;2.40;;;;;;;;;;5035983;28;20620;-78
2022/11/17 14:16:20;;;;;;;6.13;2.40;;;;;;;;;;5037634;28;20056;-79
2022/11/17 14:18:54;;;;;;;6.85;2.50;;;;;;;;;;5051129;28;20048;-79
2022/11/17 14:21:21;;;;;;;4.97;2.05;;;;;;;;;;5017437;28;20045;-78
2022/11/17 14:23:47;;;;;;;5.05;2.00;;;;;;;;;;5043354;28;20047;-79
2022/11/17 14:26:18;;;;;;;5.25;1.85;;;;;;;;;;5051155;28;20106;-79
2022/11/17 14:28:44;;;;;;;4.03;1.92;;;;;;;;;;5052502;28;20036;-81
2022/11/17 14:31:12;;;;;;;4.72;1.83;;;;;;;;;;5057314;28;20055;-80
2022/11/17 14:33:38;;;;;;;7.18;1.55;;;;;;;;;;5050536;28;20053;-79
2022/11/17 14:36:05;;;;;;;5.75;1.67;;;;;;;;;;5053698;28;20477;-79
2022/11/17 14:38:31;;;;;;;3.63;1.98;;;;;;;;;;5062875;28;20036;-80
2022/11/17 14:41:00;;;;;;;5.90;2.13;;;;;;;;;;5062862;28;20045;-81
2022/11/17 14:43:30;;;;;;;5.72;1.65;;;;;;;;;;5045914;28;20040;-82
2022/11/17 14:46:00;;;;;;;6.90;1.65;;;;;;;;;;5066865;28;20037;-83
2022/11/17 14:48:29;;;;;;;5.47;2.00;;;;;;;;;;5066995;28;20048;-83
2022/11/17 14:50:56;;;;;;;3.97;1.60;;;;;;;;;;5062503;28;20071;-82
2022/11/17 14:53:23;;;;;;;4.93;2.13;;;;;;;;;;5038980;28;20067;-81
2022/11/17 14:55:50;;;;;;;4.85;1.70;;;;;;;;;;5055901;28;20405;-82
2022/11/17 14:58:16;;;;;;;3.38;1.48;;;;;;;;;;5055511;28;20056;-82
2022/11/17 15:00:42;;;;;;;7.07;3.03;;;;;;;;;;5056446;28;20080;-83
2022/11/17 15:03:08;;;;;;;3.78;1.88;;;;;;;;;;5038577;28;20045;-82
2022/11/17 15:05:34;;;;;;;4.70;2.10;;;;;;;;;;5055725;28;20041;-82